createdAt,value
2023-07-17T00:00:44.994Z,21.93
2023-07-17T00:03:13.173Z,21.92
2023-07-17T00:05:41.906Z,21.90
2023-07-17T00:08:11.078Z,21.90
2023-07-17T00:10:39.829Z,21.89
2023-07-17T00:13:07.423Z,21.90
2023-07-17T00:15:34.709Z,21.87
2023-07-17T00:18:01.946Z,21.85
2023-07-17T00:20:29.448Z,21.86
2023-07-17T00:22:56.737Z,21.86
2023-07-17T00:25:24.668Z,21.85
2023-07-17T00:27:52.642Z,21.84
2023-07-17T00:30:19.840Z,21.79
2023-07-17T00:32:47.112Z,21.79
2023-07-17T00:35:15.783Z,21.76
2023-07-17T00:37:43.533Z,21.73
2023-07-17T00:40:12.462Z,21.69
2023-07-17T00:42:40.920Z,21.67
2023-07-17T00:45:08.860Z,21.65
2023-07-17T00:47:36.530Z,21.62
2023-07-17T00:50:05.309Z,21.61
2023-07-17T00:52:34.089Z,21.60
2023-07-17T00:55:01.469Z,21.59
2023-07-17T00:57:28.643Z,21.58
2023-07-17T00:59:55.870Z,21.59
2023-07-17T01:02:23.647Z,21.60
2023-07-17T01:04:53.302Z,21.59
2023-07-17T01:07:20.460Z,21.58
2023-07-17T01:09:49.337Z,21.57
2023-07-17T01:12:16.648Z,21.51
2023-07-17T01:14:43.918Z,21.51
2023-07-17T01:17:12.254Z,21.48
2023-07-17T01:19:39.988Z,21.46
2023-07-17T01:22:12.304Z,21.43
2023-07-17T01:24:40.307Z,21.43
2023-07-17T01:27:10.648Z,21.42
2023-07-17T01:29:38.045Z,21.43
2023-07-17T01:32:06.334Z,21.42
2023-07-17T01:34:33.662Z,21.41
2023-07-17T01:37:01.350Z,21.42
2023-07-17T01:39:32.107Z,21.40
2023-07-17T01:41:59.260Z,21.38
2023-07-17T01:44:31.477Z,21.35
2023-07-17T01:46:59.784Z,21.34
2023-07-17T01:49:27.608Z,21.33
2023-07-17T01:51:54.757Z,21.35
2023-07-17T01:54:22.661Z,21.34
2023-07-17T01:56:50.029Z,21.34
2023-07-17T01:59:17.358Z,21.37
2023-07-17T02:01:44.803Z,21.35
2023-07-17T02:04:14.464Z,21.36
2023-07-17T02:06:41.757Z,21.36
2023-07-17T02:09:09.384Z,21.38
2023-07-17T02:11:37.863Z,21.39
2023-07-17T02:14:06.920Z,21.37
2023-07-17T02:16:34.095Z,21.37
2023-07-17T02:19:01.397Z,21.37
2023-07-17T02:21:28.963Z,21.37
2023-07-17T02:23:57.165Z,21.37
2023-07-17T02:26:24.622Z,21.37
2023-07-17T02:28:51.825Z,21.36
2023-07-17T02:31:19.471Z,21.36
2023-07-17T02:33:47.373Z,21.36
2023-07-17T02:36:14.678Z,21.36
2023-07-17T02:38:44.750Z,21.37
2023-07-17T02:41:15.402Z,21.37
2023-07-17T02:43:43.023Z,21.35
2023-07-17T02:46:10.553Z,21.34
2023-07-17T02:48:38.016Z,21.35
2023-07-17T02:51:05.230Z,21.34
2023-07-17T02:53:32.542Z,21.33
2023-07-17T02:56:00.001Z,21.33
2023-07-17T02:58:27.190Z,21.38
2023-07-17T03:00:54.710Z,21.38
2023-07-17T03:03:22.205Z,21.38
2023-07-17T03:05:50.216Z,21.39
2023-07-17T03:08:17.751Z,21.39
2023-07-17T03:10:46.480Z,21.38
2023-07-17T03:13:13.981Z,21.38
2023-07-17T03:15:42.168Z,21.40
2023-07-17T03:18:09.403Z,21.42
2023-07-17T03:20:37.356Z,21.43
2023-07-17T03:23:04.764Z,21.42
2023-07-17T03:25:32.450Z,21.41
2023-07-17T03:27:59.618Z,21.40
2023-07-17T03:30:26.903Z,21.42
2023-07-17T03:32:54.392Z,21.41
2023-07-17T03:35:21.607Z,21.41
2023-07-17T03:37:49.058Z,21.42
2023-07-17T03:40:16.716Z,21.43
2023-07-17T03:42:44.297Z,21.43
2023-07-17T03:45:11.980Z,21.44
2023-07-17T03:47:40.760Z,21.46
2023-07-17T03:50:09.300Z,21.49
2023-07-17T03:52:37.149Z,21.50
2023-07-17T03:55:06.070Z,21.54
2023-07-17T03:57:33.352Z,21.57
2023-07-17T04:00:00.783Z,21.59
2023-07-17T04:02:43.826Z,21.61
2023-07-17T04:05:19.773Z,21.63
2023-07-17T04:07:47.384Z,21.66
2023-07-17T04:10:15.596Z,21.70
2023-07-17T04:12:43.023Z,21.75
2023-07-17T04:15:11.217Z,21.79
2023-07-17T04:17:38.687Z,21.83
2023-07-17T04:20:10.456Z,21.86
2023-07-17T04:22:37.819Z,21.89
2023-07-17T04:25:06.276Z,21.92
2023-07-17T04:27:34.928Z,21.96
2023-07-17T04:30:02.663Z,22.00
2023-07-17T04:32:32.567Z,22.06
2023-07-17T04:34:59.949Z,22.12
2023-07-17T04:37:27.990Z,22.15
2023-07-17T04:39:56.353Z,22.18
2023-07-17T04:42:23.578Z,22.22
2023-07-17T04:44:50.912Z,22.26
2023-07-17T04:47:19.448Z,22.31
2023-07-17T04:49:47.964Z,22.33
2023-07-17T04:52:16.129Z,22.36
2023-07-17T04:54:45.346Z,22.43
2023-07-17T04:57:12.522Z,22.48
2023-07-17T04:59:40.365Z,22.53
2023-07-17T05:02:07.769Z,22.58
2023-07-17T05:04:35.714Z,22.65
2023-07-17T05:07:03.479Z,22.70
2023-07-17T05:09:31.069Z,22.76
2023-07-17T05:11:58.369Z,22.81
2023-07-17T05:14:26.124Z,22.83
2023-07-17T05:16:53.394Z,22.88
2023-07-17T05:19:22.887Z,22.93
2023-07-17T05:21:50.553Z,22.96
2023-07-17T05:24:18.006Z,23.00
2023-07-17T05:26:45.431Z,23.04
2023-07-17T05:29:12.638Z,23.06
2023-07-17T05:31:41.445Z,23.09
2023-07-17T05:34:08.658Z,23.15
2023-07-17T05:36:36.870Z,23.21
2023-07-17T05:39:06.254Z,23.26
2023-07-17T05:41:35.029Z,23.29
2023-07-17T05:44:02.357Z,23.34
2023-07-17T05:46:31.564Z,23.37
2023-07-17T05:48:58.978Z,23.42
2023-07-17T05:51:26.233Z,23.47
2023-07-17T05:53:54.158Z,23.52
2023-07-17T05:56:21.572Z,23.56
2023-07-17T05:58:49.762Z,23.60
2023-07-17T06:01:17.228Z,23.63
2023-07-17T06:03:46.641Z,23.69
2023-07-17T06:06:14.104Z,23.74
2023-07-17T06:08:42.378Z,23.78
2023-07-17T06:11:09.996Z,23.82
2023-07-17T06:13:37.350Z,23.83
2023-07-17T06:16:05.157Z,23.86
2023-07-17T06:18:32.683Z,23.90
2023-07-17T06:21:00.079Z,23.95
2023-07-17T06:23:27.882Z,24.01
2023-07-17T06:25:55.275Z,24.07
2023-07-17T06:28:22.573Z,24.13
2023-07-17T06:30:50.084Z,24.19
2023-07-17T06:33:17.440Z,24.27
2023-07-17T06:35:45.696Z,24.33
2023-07-17T06:38:12.948Z,24.40
2023-07-17T06:40:40.519Z,24.47
2023-07-17T06:43:08.038Z,24.49
2023-07-17T06:45:36.293Z,24.55
2023-07-17T06:48:04.177Z,24.58
2023-07-17T06:50:31.830Z,24.62
2023-07-17T06:52:59.002Z,24.65
2023-07-17T06:55:29.081Z,24.70
2023-07-17T06:57:56.275Z,24.73
2023-07-17T07:00:23.513Z,24.75
2023-07-17T07:02:51.031Z,24.78
2023-07-17T07:05:18.333Z,24.83
2023-07-17T07:07:45.874Z,24.89
2023-07-17T07:10:13.482Z,24.94
2023-07-17T07:12:41.842Z,25.02
2023-07-17T07:15:10.394Z,25.04
2023-07-17T07:17:37.887Z,25.11
2023-07-17T07:20:06.491Z,25.14
2023-07-17T07:22:34.298Z,25.20
2023-07-17T07:25:01.754Z,25.26
2023-07-17T07:27:32.490Z,25.33
2023-07-17T07:30:00.075Z,25.39
2023-07-17T07:32:27.577Z,25.44
2023-07-17T07:34:55.033Z,25.51
2023-07-17T07:37:22.199Z,25.59
2023-07-17T07:39:49.453Z,25.64
2023-07-17T07:42:18.112Z,25.68
2023-07-17T07:44:45.667Z,25.76
2023-07-17T07:47:13.005Z,25.81
2023-07-17T07:49:40.268Z,25.90
2023-07-17T07:52:08.108Z,26.00
2023-07-17T07:54:35.895Z,26.06
2023-07-17T07:57:03.359Z,26.09
2023-07-17T07:59:30.667Z,26.10
2023-07-17T08:01:57.952Z,26.13
2023-07-17T08:04:25.308Z,26.21
2023-07-17T08:06:52.619Z,26.27
2023-07-17T08:09:19.882Z,26.33
2023-07-17T08:11:47.231Z,26.38
2023-07-17T08:14:14.764Z,26.40
2023-07-17T08:16:43.031Z,26.44
2023-07-17T08:19:13.444Z,26.52
2023-07-17T08:21:40.787Z,26.62
2023-07-17T08:24:08.277Z,26.70
2023-07-17T08:26:35.727Z,26.74
2023-07-17T08:29:04.270Z,26.78
2023-07-17T08:31:33.361Z,26.83
2023-07-17T08:34:01.464Z,26.87
2023-07-17T08:36:31.991Z,26.94
2023-07-17T08:38:59.433Z,26.96
2023-07-17T08:41:27.030Z,27.05
2023-07-17T08:43:54.427Z,27.09
2023-07-17T08:46:22.060Z,27.07
2023-07-17T08:48:50.310Z,27.06
2023-07-17T08:51:17.966Z,27.10
2023-07-17T08:53:49.908Z,27.18
2023-07-17T08:56:17.191Z,27.23
2023-07-17T08:58:44.613Z,27.26
2023-07-17T09:01:17.897Z,27.28
2023-07-17T09:03:45.780Z,27.33
2023-07-17T09:06:14.592Z,27.37
2023-07-17T09:08:42.824Z,27.40
2023-07-17T09:11:10.110Z,27.47
2023-07-17T09:13:43.529Z,27.54
2023-07-17T09:16:21.659Z,27.56
2023-07-17T09:18:50.328Z,27.61
2023-07-17T09:21:24.533Z,27.65
2023-07-17T09:23:53.469Z,27.60
2023-07-17T09:26:22.495Z,27.58
2023-07-17T09:28:59.111Z,27.63
2023-07-17T09:31:30.780Z,27.64
2023-07-17T09:34:00.479Z,27.68
2023-07-17T09:36:28.375Z,27.69
2023-07-17T09:38:57.006Z,27.67
2023-07-17T09:41:28.428Z,27.72
2023-07-17T09:44:09.166Z,27.79
2023-07-17T09:46:38.464Z,27.89
2023-07-17T09:49:07.849Z,27.98
2023-07-17T09:51:36.189Z,28.07
2023-07-17T09:54:04.039Z,28.13
2023-07-17T09:56:32.822Z,28.20
2023-07-17T09:59:15.634Z,28.28
2023-07-17T10:01:49.134Z,28.36
2023-07-17T10:04:18.087Z,28.43
2023-07-17T10:06:47.792Z,28.50
2023-07-17T10:09:15.630Z,28.58
2023-07-17T10:11:43.263Z,28.69
2023-07-17T10:14:10.563Z,28.61
2023-07-17T10:16:37.859Z,28.65
2023-07-17T10:19:05.664Z,28.69
2023-07-17T10:21:33.448Z,28.79
2023-07-17T10:24:04.308Z,28.88
2023-07-17T10:26:32.061Z,28.95
2023-07-17T10:29:04.775Z,28.99
2023-07-17T10:31:33.205Z,29.03
2023-07-17T10:34:05.788Z,29.07
2023-07-17T10:36:47.512Z,29.15
2023-07-17T10:39:27.250Z,29.22
2023-07-17T10:41:54.459Z,29.26
2023-07-17T10:44:21.952Z,29.29
2023-07-17T10:46:50.092Z,29.32
2023-07-17T10:49:18.797Z,29.36
2023-07-17T10:51:50.148Z,29.38
2023-07-17T10:54:18.076Z,29.39
2023-07-17T10:56:47.753Z,29.45
2023-07-17T10:59:15.858Z,29.49
2023-07-17T11:01:44.773Z,29.55
2023-07-17T11:04:12.262Z,29.59
2023-07-17T11:07:08.762Z,29.66
2023-07-17T11:09:37.671Z,29.71
2023-07-17T11:12:07.373Z,29.81
2023-07-17T11:14:34.623Z,29.86
2023-07-17T11:17:02.094Z,29.81
2023-07-17T11:19:30.105Z,29.68
2023-07-17T11:21:57.425Z,29.62
2023-07-17T11:24:25.535Z,29.61
2023-07-17T11:26:55.332Z,29.68
2023-07-17T11:29:23.154Z,29.73
2023-07-17T11:32:01.056Z,29.78
2023-07-17T11:34:28.482Z,29.76
2023-07-17T11:36:55.873Z,29.72
2023-07-17T11:39:23.755Z,29.70
2023-07-17T11:41:55.744Z,29.68
2023-07-17T11:44:24.839Z,29.74
2023-07-17T11:46:59.781Z,29.76
2023-07-17T11:49:27.978Z,29.74
2023-07-17T11:51:56.467Z,29.75
2023-07-17T11:54:31.143Z,29.76
2023-07-17T11:57:00.549Z,29.68
2023-07-17T11:59:28.064Z,29.55
2023-07-17T12:01:55.587Z,29.50
2023-07-17T12:04:27.315Z,29.54
2023-07-17T12:06:55.222Z,29.51
2023-07-17T12:09:23.458Z,29.53
2023-07-17T12:11:51.085Z,29.63
2023-07-17T12:14:19.882Z,29.66
2023-07-17T12:16:47.872Z,29.69
2023-07-17T12:19:15.480Z,29.71
2023-07-17T12:21:43.398Z,29.70
2023-07-17T12:24:13.446Z,29.60
2023-07-17T12:26:44.775Z,29.44
2023-07-17T12:29:12.338Z,29.31
2023-07-17T12:31:39.812Z,29.36
2023-07-17T12:34:08.415Z,29.40
2023-07-17T12:36:35.991Z,29.54
2023-07-17T12:39:15.896Z,29.61
2023-07-17T12:41:44.635Z,29.62
2023-07-17T12:44:12.492Z,29.58
2023-07-17T12:46:39.840Z,29.51
2023-07-17T12:49:07.364Z,29.42
2023-07-17T12:51:35.617Z,29.38
2023-07-17T12:54:03.073Z,29.41
2023-07-17T12:56:30.741Z,29.45
2023-07-17T12:58:58.446Z,29.52
2023-07-17T13:01:25.999Z,29.63
2023-07-17T13:03:53.613Z,29.70
2023-07-17T13:06:21.748Z,29.74
2023-07-17T13:08:49.842Z,29.77
2023-07-17T13:11:18.425Z,29.86
2023-07-17T13:13:45.999Z,29.97
2023-07-17T13:16:13.828Z,30.05
2023-07-17T13:18:42.203Z,30.05
2023-07-17T13:21:12.215Z,30.06
2023-07-17T13:23:39.701Z,30.13
2023-07-17T13:26:07.598Z,30.16
2023-07-17T13:28:36.017Z,30.15
2023-07-17T13:31:09.855Z,30.11
2023-07-17T13:33:39.774Z,30.06
2023-07-17T13:36:07.588Z,30.05
2023-07-17T13:38:35.458Z,30.02
2023-07-17T13:41:02.851Z,30.03
2023-07-17T13:43:30.385Z,30.09
2023-07-17T13:45:59.143Z,30.13
2023-07-17T13:48:26.748Z,30.20
2023-07-17T13:50:54.244Z,30.25
2023-07-17T13:53:22.122Z,30.22
2023-07-17T13:55:49.871Z,30.18
2023-07-17T13:58:17.208Z,30.21
2023-07-17T14:00:45.154Z,30.22
2023-07-17T14:03:15.394Z,30.24
2023-07-17T14:05:44.599Z,30.29
2023-07-17T14:08:12.088Z,30.29
2023-07-17T14:10:40.038Z,30.31
2023-07-17T14:13:07.463Z,30.34
2023-07-17T14:15:36.081Z,30.38
2023-07-17T14:18:05.139Z,30.42
2023-07-17T14:20:34.307Z,30.49
2023-07-17T14:23:02.091Z,30.57
2023-07-17T14:25:29.794Z,30.63
2023-07-17T14:27:57.322Z,30.67
2023-07-17T14:30:24.644Z,30.67
2023-07-17T14:32:53.267Z,30.69
2023-07-17T14:35:20.918Z,30.70
2023-07-17T14:37:48.382Z,30.67
2023-07-17T14:40:15.824Z,30.63
2023-07-17T14:42:43.270Z,30.62
2023-07-17T14:45:11.033Z,30.58
2023-07-17T14:47:38.611Z,30.59
2023-07-17T14:50:07.618Z,30.63
2023-07-17T14:52:35.307Z,30.63
2023-07-17T14:55:03.009Z,30.62
2023-07-17T14:57:30.730Z,30.61
2023-07-17T14:59:58.737Z,30.62
2023-07-17T15:02:26.233Z,30.65
2023-07-17T15:04:53.549Z,30.63
2023-07-17T15:07:20.831Z,30.57
2023-07-17T15:09:48.159Z,30.52
2023-07-17T15:12:15.852Z,30.49
2023-07-17T15:14:43.391Z,30.49
2023-07-17T15:17:11.112Z,30.46
2023-07-17T15:19:42.113Z,30.45
2023-07-17T15:22:10.177Z,30.38
2023-07-17T15:24:39.060Z,30.35
2023-07-17T15:27:06.360Z,30.29
2023-07-17T15:29:34.550Z,30.28
2023-07-17T15:32:02.105Z,30.23
2023-07-17T15:34:29.941Z,30.21
2023-07-17T15:36:57.897Z,30.15
2023-07-17T15:39:25.297Z,30.08
2023-07-17T15:41:52.648Z,30.05
2023-07-17T15:44:19.876Z,30.04
2023-07-17T15:46:47.731Z,29.98
2023-07-17T15:49:15.338Z,29.90
2023-07-17T15:51:42.749Z,29.88
2023-07-17T15:54:11.368Z,29.88
2023-07-17T15:56:39.136Z,29.80
2023-07-17T15:59:06.594Z,29.75
2023-07-17T16:01:35.018Z,29.75
2023-07-17T16:04:02.615Z,29.75
2023-07-17T16:06:30.115Z,29.70
2023-07-17T16:08:57.879Z,29.69
2023-07-17T16:11:25.273Z,29.62
2023-07-17T16:13:52.813Z,29.51
2023-07-17T16:16:22.109Z,29.42
2023-07-17T16:18:49.867Z,29.39
2023-07-17T16:21:17.091Z,29.34
2023-07-17T16:23:44.650Z,29.30
2023-07-17T16:26:11.918Z,29.26
2023-07-17T16:28:39.747Z,29.22
2023-07-17T16:31:07.382Z,29.19
2023-07-17T16:33:34.834Z,29.16
2023-07-17T16:36:02.339Z,29.09
2023-07-17T16:38:30.298Z,29.03
2023-07-17T16:40:58.045Z,28.95
2023-07-17T16:43:25.303Z,28.91
2023-07-17T16:45:54.575Z,28.87
2023-07-17T16:48:21.810Z,28.82
2023-07-17T16:50:49.621Z,28.75
2023-07-17T16:53:17.190Z,28.72
2023-07-17T16:55:44.699Z,28.66
2023-07-17T16:58:14.462Z,28.63
2023-07-17T17:00:42.819Z,28.61
2023-07-17T17:03:10.097Z,28.59
2023-07-17T17:05:40.294Z,28.57
2023-07-17T17:08:08.469Z,28.53
2023-07-17T17:10:37.752Z,28.45
2023-07-17T17:13:05.293Z,28.39
2023-07-17T17:15:32.816Z,28.35
2023-07-17T17:18:01.028Z,28.28
2023-07-17T17:20:28.846Z,28.22
2023-07-17T17:22:56.693Z,28.13
2023-07-17T17:25:24.059Z,28.04
2023-07-17T17:27:51.796Z,27.94
2023-07-17T17:30:21.041Z,27.84
2023-07-17T17:32:48.486Z,27.75
2023-07-17T17:35:16.376Z,27.64
2023-07-17T17:37:44.834Z,27.54
2023-07-17T17:40:13.255Z,27.44
2023-07-17T17:42:40.589Z,27.32
2023-07-17T17:45:11.085Z,27.22
2023-07-17T17:47:42.117Z,27.12
2023-07-17T17:50:10.455Z,27.04
2023-07-17T17:52:37.727Z,26.96
2023-07-17T17:55:05.327Z,26.86
2023-07-17T17:57:32.706Z,26.77
2023-07-17T17:59:59.999Z,26.70
2023-07-17T18:02:28.014Z,26.62
2023-07-17T18:04:55.554Z,26.55
2023-07-17T18:07:23.040Z,26.46
2023-07-17T18:09:54.175Z,26.38
2023-07-17T18:12:21.419Z,26.32
2023-07-17T18:14:48.872Z,26.24
2023-07-17T18:17:16.257Z,26.15
2023-07-17T18:19:43.450Z,26.09
2023-07-17T18:22:10.753Z,26.04
2023-07-17T18:24:38.955Z,25.97
2023-07-17T18:27:07.011Z,25.91
2023-07-17T18:29:35.114Z,25.84
2023-07-17T18:32:02.720Z,25.77
2023-07-17T18:34:33.410Z,25.72
2023-07-17T18:37:00.957Z,25.66
2023-07-17T18:39:29.151Z,25.60
2023-07-17T18:41:57.633Z,25.53
2023-07-17T18:44:25.332Z,25.47
2023-07-17T18:46:52.743Z,25.41
2023-07-17T18:49:21.311Z,25.36
2023-07-17T18:51:49.075Z,25.30
2023-07-17T18:54:16.503Z,25.24
2023-07-17T18:56:44.244Z,25.19
2023-07-17T18:59:19.036Z,25.14
2023-07-17T19:01:47.116Z,25.10
2023-07-17T19:04:14.499Z,25.05
2023-07-17T19:06:42.634Z,25.01
2023-07-17T19:09:10.524Z,24.98
2023-07-17T19:11:37.992Z,24.94
2023-07-17T19:14:05.442Z,24.90
2023-07-17T19:16:33.657Z,24.86
2023-07-17T19:19:01.326Z,24.81
2023-07-17T19:21:29.088Z,24.77
2023-07-17T19:23:57.964Z,24.73
2023-07-17T19:26:27.086Z,24.68
2023-07-17T19:28:54.907Z,24.65
2023-07-17T19:31:27.601Z,24.60
2023-07-17T19:33:55.888Z,24.58
2023-07-17T19:36:23.900Z,24.56
2023-07-17T19:38:51.594Z,24.52
2023-07-17T19:41:19.761Z,24.47
2023-07-17T19:43:48.927Z,24.44
2023-07-17T19:46:18.126Z,24.42
2023-07-17T19:48:45.772Z,24.37
2023-07-17T19:51:13.029Z,24.34
2023-07-17T19:53:41.276Z,24.30
2023-07-17T19:56:08.575Z,24.28
2023-07-17T19:58:35.898Z,24.25
2023-07-17T20:01:03.823Z,24.23
2023-07-17T20:03:31.927Z,24.20
2023-07-17T20:05:59.787Z,24.18
2023-07-17T20:08:27.073Z,24.15
2023-07-17T20:10:54.510Z,24.12
2023-07-17T20:13:22.915Z,24.09
2023-07-17T20:15:50.377Z,24.07
2023-07-17T20:18:17.586Z,24.04
2023-07-17T20:20:45.174Z,24.02
2023-07-17T20:23:12.502Z,24.01
2023-07-17T20:25:41.024Z,23.98
2023-07-17T20:28:09.191Z,23.95
2023-07-17T20:30:36.898Z,23.92
2023-07-17T20:33:04.209Z,23.88
2023-07-17T20:35:31.786Z,23.84
2023-07-17T20:38:00.436Z,23.83
2023-07-17T20:40:28.194Z,23.79
2023-07-17T20:42:57.548Z,23.76
2023-07-17T20:45:33.794Z,23.75
2023-07-17T20:48:02.185Z,23.73
2023-07-17T20:50:29.805Z,23.73
2023-07-17T20:52:58.150Z,23.73
2023-07-17T20:55:25.435Z,23.70
2023-07-17T20:57:52.613Z,23.68
2023-07-17T21:00:19.885Z,23.66
2023-07-17T21:02:47.486Z,23.65
2023-07-17T21:05:23.073Z,23.64
2023-07-17T21:07:51.460Z,23.55
2023-07-17T21:10:19.294Z,23.55
2023-07-17T21:12:47.655Z,23.53
2023-07-17T21:15:15.097Z,23.51
2023-07-17T21:17:45.265Z,23.49
2023-07-17T21:20:14.145Z,23.46
2023-07-17T21:22:43.147Z,23.44
2023-07-17T21:25:11.154Z,23.43
2023-07-17T21:27:38.600Z,23.40
2023-07-17T21:30:06.775Z,23.41
2023-07-17T21:32:34.458Z,23.40
2023-07-17T21:35:01.722Z,23.41
2023-07-17T21:37:29.041Z,23.40
2023-07-17T21:39:56.319Z,23.36
2023-07-17T21:42:24.284Z,23.33
2023-07-17T21:44:51.834Z,23.31
2023-07-17T21:47:19.210Z,23.29
2023-07-17T21:49:49.373Z,23.28
2023-07-17T21:52:17.323Z,23.26
2023-07-17T21:54:44.628Z,23.27
2023-07-17T21:57:12.916Z,23.26
2023-07-17T21:59:43.330Z,23.26
2023-07-17T22:02:10.576Z,23.26
2023-07-17T22:04:37.876Z,23.25
2023-07-17T22:07:05.929Z,23.24
2023-07-17T22:09:33.462Z,23.22
2023-07-17T22:12:00.706Z,23.19
2023-07-17T22:14:29.890Z,23.17
2023-07-17T22:16:58.954Z,23.16
2023-07-17T22:19:26.306Z,23.14
2023-07-17T22:21:53.500Z,23.12
2023-07-17T22:24:20.803Z,23.12
2023-07-17T22:26:49.649Z,23.10
2023-07-17T22:29:17.197Z,23.10
2023-07-17T22:31:44.692Z,23.07
2023-07-17T22:34:13.129Z,23.06
2023-07-17T22:36:40.922Z,23.04
2023-07-17T22:39:08.313Z,23.04
2023-07-17T22:41:36.549Z,23.02
2023-07-17T22:44:04.170Z,23.00
2023-07-17T22:46:31.430Z,22.99
2023-07-17T22:48:59.494Z,22.97
2023-07-17T22:51:27.026Z,22.96
2023-07-17T22:53:54.334Z,22.95
2023-07-17T22:56:21.915Z,22.94
2023-07-17T22:58:49.319Z,22.93
2023-07-17T23:01:17.217Z,22.93
2023-07-17T23:03:44.703Z,22.92
2023-07-17T23:06:12.008Z,22.92
2023-07-17T23:08:39.218Z,22.91
2023-07-17T23:11:06.640Z,22.90
2023-07-17T23:13:34.079Z,22.92
2023-07-17T23:16:01.379Z,22.92
2023-07-17T23:18:29.497Z,22.92
2023-07-17T23:20:57.431Z,22.91
2023-07-17T23:23:25.244Z,22.92
2023-07-17T23:25:52.567Z,22.91
2023-07-17T23:28:19.855Z,22.90
2023-07-17T23:30:48.142Z,22.90
2023-07-17T23:33:15.663Z,22.89
2023-07-17T23:35:43.657Z,22.89
2023-07-17T23:38:10.952Z,22.88
2023-07-17T23:40:38.546Z,22.90
2023-07-17T23:43:06.372Z,22.90
2023-07-17T23:45:34.897Z,22.89
2023-07-17T23:48:02.152Z,22.85
2023-07-17T23:50:30.119Z,22.82
2023-07-17T23:52:57.549Z,22.82
2023-07-17T23:55:24.984Z,22.82
2023-07-17T23:57:52.856Z,22.82
